Time;durP1;ratioP1;P1;durP2;ratioP2;P2;SDS_P1;SDS_P2;PMS_P1;PMS_P2;Temp;Humidity;BMP_temperature;BMP_pressure;BME280_temperature;BME280_humidity;BME280_pressure;Samples;Min_cycle;Max_cycle;Signal;HPM_P1;HPM_P2
2021/03/27 00:00:21;;;;;;;17.08;9.25;;;13.10;66.00;;;;;;5071679;28;20098;-82
2021/03/27 00:03:13;;;;;;;16.80;8.88;;;13.10;66.30;;;;;;5070820;28;20416;-82
2021/03/27 00:05:47;;;;;;;14.75;8.23;;;13.10;66.40;;;;;;5070049;28;20028;-82
2021/03/27 00:08:44;;;;;;;17.55;8.75;;;13.10;66.40;;;;;;5073529;28;20046;-84
2021/03/27 00:11:42;;;;;;;14.82;8.45;;;13.00;66.70;;;;;;5061864;28;20033;-85
2021/03/27 00:14:13;;;;;;;;;;;13.00;67.10;;;;;;5019734;28;20045;-85
2021/03/27 00:17:12;;;;;;;19.95;9.02;;;12.90;67.00;;;;;;5070715;28;19916;-85
2021/03/27 00:19:52;;;;;;;16.38;8.95;;;13.00;67.20;;;;;;5071594;28;20049;-84
2021/03/27 00:22:29;;;;;;;18.55;9.00;;;12.90;67.30;;;;;;5072208;28;20052;-84
2021/03/27 00:25:05;;;;;;;14.05;7.82;;;12.80;67.80;;;;;;5076085;28;20071;-85
2021/03/27 00:27:44;;;;;;;20.92;8.63;;;12.80;67.90;;;;;;5071464;28;20037;-85
2021/03/27 00:30:17;;;;;;;14.80;8.57;;;12.80;68.00;;;;;;5072147;28;20416;-84
2021/03/27 00:32:47;;;;;;;20.27;9.18;;;12.70;68.00;;;;;;5071798;28;20024;-84
2021/03/27 00:35:43;;;;;;;15.55;8.70;;;12.70;68.30;;;;;;5073409;28;20439;-85
2021/03/27 00:38:20;;;;;;;19.95;8.82;;;12.70;68.30;;;;;;5069303;28;20421;-85
2021/03/27 00:40:49;;;;;;;13.85;7.53;;;12.60;68.20;;;;;;5071629;28;20024;-84
2021/03/27 00:43:35;;;;;;;14.45;8.15;;;12.70;68.30;;;;;;5070515;28;20041;-85
2021/03/27 00:46:05;;;;;;;18.17;7.45;;;12.60;68.40;;;;;;5070586;28;20361;-85
2021/03/27 00:48:57;;;;;;;14.38;7.97;;;12.60;68.60;;;;;;5071372;28;20063;-86
2021/03/27 00:51:29;;;;;;;20.38;9.52;;;12.60;68.80;;;;;;5070244;28;20037;-85
2021/03/27 00:54:09;;;;;;;17.83;7.95;;;12.50;68.90;;;;;;5070429;28;20078;-84
2021/03/27 00:56:49;;;;;;;19.08;8.48;;;12.60;69.10;;;;;;5073217;28;20520;-84
2021/03/27 00:59:24;;;;;;;13.20;8.10;;;12.50;69.00;;;;;;5071023;28;20040;-85
2021/03/27 01:01:54;;;;;;;17.95;7.15;;;12.60;69.40;;;;;;5070113;28;20036;-83
2021/03/27 01:04:31;;;;;;;15.77;8.48;;;12.50;69.60;;;;;;5071268;28;20047;-85
2021/03/27 01:07:01;;;;;;;20.20;7.60;;;12.50;69.90;;;;;;5071543;28;20127;-83
2021/03/27 01:09:39;;;;;;;16.58;8.45;;;12.50;70.00;;;;;;5071813;28;20253;-85
2021/03/27 01:12:12;;;;;;;14.43;7.40;;;12.40;70.30;;;;;;5071551;28;20066;-84
2021/03/27 01:14:43;;;;;;;14.18;7.80;;;12.40;70.50;;;;;;5071030;28;20044;-85
2021/03/27 01:17:15;;;;;;;18.95;8.30;;;12.30;70.60;;;;;;5072916;28;20012;-84
2021/03/27 01:19:51;;;;;;;15.70;7.88;;;12.30;70.90;;;;;;5070203;28;20055;-84
2021/03/27 01:22:18;;;;;;;21.30;10.05;;;12.30;71.50;;;;;;5069627;28;20029;-86
2021/03/27 01:24:47;;;;;;;14.02;7.57;;;12.30;71.50;;;;;;5070300;28;20025;-86
2021/03/27 01:27:15;;;;;;;;;;;12.30;71.70;;;;;;5070859;28;20567;-85
2021/03/27 01:29:51;;;;;;;12.48;7.25;;;12.30;71.50;;;;;;5070568;28;20244;-85
2021/03/27 01:32:51;;;;;;;12.45;6.68;;;12.30;71.60;;;;;;5072195;28;20021;-84
2021/03/27 01:35:27;;;;;;;15.90;7.30;;;12.20;71.40;;;;;;5069613;28;20044;-85
2021/03/27 01:37:59;;;;;;;17.35;7.00;;;12.20;71.70;;;;;;5069992;28;20075;-84
2021/03/27 01:40:32;;;;;;;18.80;9.38;;;12.20;71.70;;;;;;5071777;28;20036;-83
2021/03/27 01:43:23;;;;;;;13.40;7.03;;;12.10;71.50;;;;;;5074708;28;20536;-85
2021/03/27 01:46:18;;;;;;;15.35;6.25;;;12.10;71.60;;;;;;5062151;28;20051;-83
2021/03/27 01:48:50;;;;;;;10.80;6.00;;;12.10;71.90;;;;;;5074098;28;20473;-84
2021/03/27 01:51:53;;;;;;;10.40;5.35;;;12.00;71.80;;;;;;5072481;28;20366;-85
2021/03/27 01:54:24;;;;;;;11.35;5.70;;;12.10;71.90;;;;;;5072551;28;20062;-84
2021/03/27 01:57:04;;;;;;;11.80;5.45;;;12.10;71.80;;;;;;5073137;28;20024;-84
2021/03/27 01:59:59;;;;;;;15.40;6.25;;;12.10;71.80;;;;;;5075319;28;20028;-81
2021/03/27 02:02:30;;;;;;;16.60;6.68;;;12.10;71.60;;;;;;5072290;28;20469;-82
2021/03/27 02:05:14;;;;;;;12.70;5.40;;;12.10;71.70;;;;;;5071940;28;20040;-84
2021/03/27 02:07:58;;;;;;;14.38;6.25;;;12.10;71.90;;;;;;5073396;28;20048;-84
2021/03/27 02:10:48;;;;;;;12.88;5.95;;;12.00;72.10;;;;;;5073436;28;20374;-87
2021/03/27 02:13:29;;;;;;;10.68;5.88;;;12.00;72.20;;;;;;5071870;28;20482;-84
2021/03/27 02:16:03;;;;;;;13.90;6.28;;;12.00;72.40;;;;;;5072418;28;20196;-82
2021/03/27 02:18:53;;;;;;;9.98;5.90;;;11.90;72.50;;;;;;5073480;28;20051;-84
2021/03/27 02:21:35;;;;;;;10.77;5.13;;;11.90;72.80;;;;;;5073532;28;20469;-84
2021/03/27 02:24:29;;;;;;;12.77;5.93;;;11.90;72.90;;;;;;5072249;28;20032;-84
2021/03/27 02:27:18;;;;;;;9.77;5.25;;;11.90;73.10;;;;;;5072258;28;20024;-84
2021/03/27 02:29:59;;;;;;;14.57;5.72;;;11.90;73.20;;;;;;5072282;28;20048;-86
2021/03/27 02:32:49;;;;;;;13.23;5.40;;;11.90;73.20;;;;;;5075116;28;20025;-83
2021/03/27 02:35:34;;;;;;;13.60;5.72;;;11.90;73.00;;;;;;5077546;28;20040;-85
2021/03/27 02:38:42;;;;;;;12.60;5.00;;;11.90;73.10;;;;;;5093664;28;20132;-86
2021/03/27 02:41:26;;;;;;;14.55;6.25;;;12.00;73.20;;;;;;5055977;28;20047;-86
2021/03/27 02:44:00;;;;;;;11.07;5.60;;;12.00;73.10;;;;;;5093772;28;20036;-86
2021/03/27 02:46:33;;;;;;;11.82;5.05;;;12.00;73.10;;;;;;5093410;28;20036;-86
2021/03/27 02:49:30;;;;;;;11.75;5.60;;;12.10;73.10;;;;;;5093346;28;20059;-86
2021/03/27 02:52:31;;;;;;;12.30;4.97;;;12.10;73.30;;;;;;5091830;28;20048;-87
2021/03/27 02:55:06;;;;;;;10.90;4.75;;;12.20;73.80;;;;;;5092137;28;20040;-86
2021/03/27 02:57:41;;;;;;;10.57;4.80;;;12.30;73.70;;;;;;5091731;28;20117;-86
2021/03/27 03:00:22;;;;;;;8.07;3.72;;;12.30;74.70;;;;;;5092475;28;20040;-85
2021/03/27 03:03:37;;;;;;;6.45;3.20;;;12.30;75.70;;;;;;5091060;28;20626;-86
2021/03/27 03:06:27;;;;;;;8.55;4.10;;;12.40;76.60;;;;;;5067556;28;20066;-83
2021/03/27 03:09:14;;;;;;;6.93;3.33;;;12.40;78.20;;;;;;5090984;28;20440;-83
2021/03/27 03:18:40;;;;;;;7.85;3.92;;;12.30;81.70;;;;;;5091807;28;20104;-82
2021/03/27 03:21:27;;;;;;;8.88;4.38;;;12.30;82.90;;;;;;5091030;28;20484;-83
2021/03/27 03:24:04;;;;;;;7.72;4.53;;;12.30;83.90;;;;;;5094522;28;20035;-83
2021/03/27 03:27:00;;;;;;;9.23;4.65;;;12.30;85.90;;;;;;5094783;28;20353;-83
2021/03/27 03:29:40;;;;;;;8.82;5.10;;;12.30;87.20;;;;;;5093103;28;20039;-84
2021/03/27 03:32:15;;;;;;;9.25;4.57;;;12.20;89.50;;;;;;5091480;28;20056;-85
2021/03/27 03:34:59;;;;;;;7.43;4.60;;;12.00;90.50;;;;;;5090706;28;20437;-86
2021/03/27 03:37:55;;;;;;;10.45;4.90;;;11.90;91.20;;;;;;5092312;28;20038;-83
2021/03/27 03:40:27;;;;;;;13.38;4.82;;;12.00;91.60;;;;;;5090887;28;20054;-82
2021/03/27 03:43:17;;;;;;;11.88;4.80;;;11.80;92.10;;;;;;5090364;28;20032;-83
2021/03/27 03:46:15;;;;;;;9.43;4.95;;;11.80;92.50;;;;;;5091398;28;20474;-83
2021/03/27 03:48:46;;;;;;;8.57;5.30;;;11.80;93.00;;;;;;5063156;28;20117;-82
2021/03/27 03:51:18;;;;;;;6.65;3.63;;;11.80;93.50;;;;;;5090636;28;20490;-83
2021/03/27 03:54:13;;;;;;;5.32;2.75;;;11.30;93.90;;;;;;5090351;28;20597;-84
2021/03/27 03:56:52;;;;;;;4.50;2.42;;;10.90;94.30;;;;;;5090945;28;20462;-84
2021/03/27 03:59:41;;;;;;;3.67;2.03;;;10.50;94.90;;;;;;5092880;28;20027;-85
2021/03/27 04:02:22;;;;;;;2.47;1.60;;;10.40;95.00;;;;;;5091261;28;20131;-85
2021/03/27 04:04:56;;;;;;;2.25;1.77;;;10.30;94.50;;;;;;5091023;28;20408;-85
2021/03/27 04:07:29;;;;;;;1.40;1.30;;;10.20;94.80;;;;;;5090903;28;20172;-84
2021/03/27 04:10:03;;;;;;;1.58;1.48;;;10.10;95.00;;;;;;5091588;28;20040;-83
2021/03/27 04:12:45;;;;;;;1.63;1.20;;;10.10;95.10;;;;;;5090811;28;20629;-84
2021/03/27 04:15:23;;;;;;;1.75;0.80;;;9.80;95.30;;;;;;5090843;28;20034;-84
2021/03/27 04:18:06;;;;;;;;;;;9.80;95.00;;;;;;5092032;28;20010;-84
2021/03/27 04:21:31;;;;;;;3.10;0.60;;;9.70;95.40;;;;;;5092271;28;19901;-84
2021/03/27 04:24:07;;;;;;;0.73;0.73;;;9.70;95.50;;;;;;5011268;28;20462;-86
2021/03/27 04:26:40;;;;;;;1.85;0.88;;;9.60;95.70;;;;;;5030548;28;20112;-86
2021/03/27 04:29:30;;;;;;;2.05;0.98;;;9.60;95.90;;;;;;5084441;28;20423;-86
2021/03/27 04:32:26;;;;;;;2.85;0.85;;;9.60;96.30;;;;;;5091145;28;20093;-84
2021/03/27 04:35:29;;;;;;;2.20;0.93;;;9.30;96.90;;;;;;5090392;28;20029;-83
2021/03/27 04:38:07;;;;;;;1.10;0.93;;;9.40;96.90;;;;;;5090759;28;20040;-81
2021/03/27 04:41:02;;;;;;;1.30;0.70;;;9.20;97.30;;;;;;5090680;28;20366;-83
2021/03/27 04:43:36;;;;;;;2.78;1.35;;;9.20;97.60;;;;;;5103775;28;20465;-82
2021/03/27 04:46:20;;;;;;;0.98;0.60;;;9.10;97.30;;;;;;5088990;28;20054;-83
2021/03/27 04:49:08;;;;;;;1.58;0.75;;;9.00;97.20;;;;;;5089810;28;20052;-83
2021/03/27 04:51:41;;;;;;;0.65;0.60;;;8.70;97.70;;;;;;5090332;28;20351;-84
2021/03/27 04:54:21;;;;;;;1.23;0.88;;;8.90;97.80;;;;;;5090087;28;20453;-84
2021/03/27 04:57:13;;;;;;;1.85;1.40;;;8.90;97.60;;;;;;5088485;28;20032;-83
2021/03/27 04:59:50;;;;;;;1.40;1.27;;;8.80;97.70;;;;;;5089632;28;20016;-83
2021/03/27 05:02:20;;;;;;;2.33;1.33;;;8.90;97.80;;;;;;5090910;28;20617;-82
2021/03/27 05:05:12;;;;;;;1.75;1.38;;;8.80;97.80;;;;;;5090030;28;20046;-81
2021/03/27 05:07:58;;;;;;;1.80;1.50;;;8.80;98.00;;;;;;5089991;28;20035;-82
2021/03/27 05:10:46;;;;;;;2.10;1.50;;;8.90;97.90;;;;;;5088693;28;20473;-84
2021/03/27 05:13:48;;;;;;;3.05;1.58;;;8.90;97.80;;;;;;5089726;28;20036;-83
2021/03/27 05:16:27;;;;;;;2.55;2.05;;;9.00;97.80;;;;;;5088799;28;20035;-84
2021/03/27 05:19:08;;;;;;;2.22;1.60;;;8.90;97.70;;;;;;5089766;28;20028;-83
2021/03/27 05:21:37;;;;;;;3.35;2.20;;;9.00;97.70;;;;;;5089825;28;20028;-83
2021/03/27 05:24:11;;;;;;;3.22;2.08;;;9.00;98.00;;;;;;5089930;28;20453;-83
2021/03/27 05:26:59;;;;;;;3.97;2.00;;;9.10;97.80;;;;;;5089812;28;20039;-79
2021/03/27 05:29:31;;;;;;;;;;;9.10;97.70;;;;;;5092248;28;20119;-84
2021/03/27 05:32:22;;;;;;;3.10;2.08;;;9.10;98.20;;;;;;5089325;28;20326;-82
2021/03/27 05:34:53;;;;;;;2.88;2.20;;;9.20;97.80;;;;;;5067215;28;20060;-83
2021/03/27 05:37:33;;;;;;;2.53;2.15;;;9.20;97.70;;;;;;5050626;28;20029;-82
2021/03/27 05:40:30;;;;;;;3.20;2.00;;;9.00;98.10;;;;;;5066963;28;20037;-84
2021/03/27 05:43:14;;;;;;;3.35;2.42;;;9.00;97.90;;;;;;5067139;28;20123;-83
2021/03/27 05:46:11;;;;;;;3.72;2.75;;;8.80;97.80;;;;;;5067045;28;20131;-84
2021/03/27 05:49:01;;;;;;;3.80;2.42;;;8.70;97.80;;;;;;5066457;28;20043;-84
2021/03/27 05:52:10;;;;;;;5.63;2.78;;;8.70;97.80;;;;;;5066623;28;20068;-82
2021/03/27 05:54:56;;;;;;;4.28;2.95;;;8.80;97.60;;;;;;5049766;28;20500;-83
2021/03/27 05:57:41;;;;;;;4.03;2.83;;;8.80;97.40;;;;;;5066560;28;20094;-82
2021/03/27 06:00:43;;;;;;;5.85;3.20;;;8.70;97.70;;;;;;5066929;28;20504;-82
2021/03/27 06:03:25;;;;;;;4.00;3.03;;;8.60;97.90;;;;;;5049975;28;20425;-83
2021/03/27 06:06:35;;;;;;;4.88;2.75;;;8.60;97.90;;;;;;5077595;28;20044;-82
2021/03/27 06:09:07;;;;;;;3.10;2.80;;;8.70;97.80;;;;;;5088256;28;20086;-82
2021/03/27 06:11:51;;;;;;;6.20;3.10;;;8.70;97.70;;;;;;5091184;28;20028;-82
2021/03/27 06:14:38;;;;;;;4.15;3.03;;;8.80;97.40;;;;;;5088449;28;20098;-84
2021/03/27 06:17:22;;;;;;;4.30;3.42;;;8.90;97.60;;;;;;5089533;28;20032;-84
2021/03/27 06:20:07;;;;;;;4.47;3.50;;;8.90;97.30;;;;;;5087937;28;20043;-85
2021/03/27 06:23:15;;;;;;;4.55;3.50;;;8.80;97.50;;;;;;5089939;28;20064;-85
2021/03/27 06:25:54;;;;;;;6.13;3.83;;;8.90;97.40;;;;;;5089606;28;20089;-86
2021/03/27 06:29:01;;;;;;;4.93;3.58;;;9.00;97.30;;;;;;5093660;28;20024;-86
2021/03/27 06:31:53;;;;;;;4.97;3.92;;;8.80;97.10;;;;;;5095664;28;20366;-85
2021/03/27 06:34:20;;;;;;;8.02;4.20;;;8.80;97.20;;;;;;5052303;28;20050;-84
2021/03/27 06:36:52;;;;;;;7.00;3.97;;;8.80;96.80;;;;;;5093102;28;20246;-83
2021/03/27 06:39:41;;;;;;;10.90;4.20;;;8.90;96.50;;;;;;5093099;28;20032;-86
2021/03/27 06:42:24;;;;;;;8.10;4.00;;;8.90;96.40;;;;;;5062380;28;20034;-84
2021/03/27 06:45:03;;;;;;;5.35;3.53;;;8.90;96.30;;;;;;5093015;28;20057;-86
2021/03/27 06:47:39;;;;;;;5.30;3.50;;;9.00;96.10;;;;;;5094762;28;20083;-84
2021/03/27 06:50:26;;;;;;;5.10;3.55;;;9.00;95.50;;;;;;5093945;28;20044;-84
2021/03/27 06:53:19;;;;;;;11.00;4.28;;;8.90;95.60;;;;;;5093914;28;20061;-83
2021/03/27 06:56:04;;;;;;;10.30;3.60;;;9.00;95.80;;;;;;5093456;28;20382;-84
2021/03/27 06:59:07;;;;;;;6.20;3.47;;;8.80;95.00;;;;;;5093334;28;20036;-85
2021/03/27 07:01:44;;;;;;;5.35;3.17;;;8.90;94.90;;;;;;5094239;28;20100;-83
2021/03/27 07:04:43;;;;;;;7.65;2.42;;;9.10;94.90;;;;;;5094163;28;20025;-84
2021/03/27 07:07:31;;;;;;;7.80;2.78;;;9.20;94.50;;;;;;5093157;28;20028;-88
2021/03/27 07:10:34;;;;;;;8.85;2.70;;;9.20;94.10;;;;;;5092984;28;20024;-84
2021/03/27 07:13:24;;;;;;;11.85;3.28;;;8.90;93.40;;;;;;5092321;28;20090;-87
2021/03/27 07:16:16;;;;;;;6.70;3.00;;;9.10;93.90;;;;;;5091652;28;20408;-86
2021/03/27 07:19:28;;;;;;;10.48;2.75;;;9.20;93.40;;;;;;5092568;28;20050;-85
2021/03/27 07:22:26;;;;;;;4.20;2.50;;;9.20;93.20;;;;;;5092231;28;20119;-82
2021/03/27 07:25:17;;;;;;;6.35;2.88;;;9.20;93.40;;;;;;5091258;28;20032;-85
2021/03/27 07:28:00;;;;;;;9.40;3.13;;;9.00;93.30;;;;;;5091466;28;20381;-80
2021/03/27 07:31:04;;;;;;;7.20;2.60;;;9.10;93.40;;;;;;5091419;28;20032;-85
2021/03/27 07:33:54;;;;;;;12.55;3.38;;;9.20;93.30;;;;;;5092633;28;20070;-85
2021/03/27 07:37:05;;;;;;;6.03;3.10;;;9.30;93.30;;;;;;5060728;27;20107;-85
2021/03/27 07:40:01;;;;;;;9.15;3.50;;;9.40;93.30;;;;;;5092910;28;20036;-84
2021/03/27 07:43:11;;;;;;;12.68;3.70;;;9.30;93.20;;;;;;5094017;28;20027;-90
2021/03/27 07:46:01;;;;;;;10.55;3.55;;;9.30;93.30;;;;;;5029885;28;20362;-82
2021/03/27 07:48:57;;;;;;;13.27;3.92;;;9.40;93.20;;;;;;5091474;28;20044;-82
2021/03/27 07:54:53;;;;;;;17.02;4.13;;;9.30;93.00;;;;;;5089645;28;20503;-88
2021/03/27 07:57:56;;;;;;;17.77;3.53;;;9.30;92.80;;;;;;5071908;28;20039;-88
2021/03/27 08:00:39;;;;;;;10.63;4.22;;;9.40;92.60;;;;;;5086580;28;20378;-82
2021/03/27 08:03:19;;;;;;;13.38;4.38;;;9.50;92.60;;;;;;5070911;28;20050;-87
2021/03/27 08:06:08;;;;;;;16.10;4.28;;;9.60;92.50;;;;;;5072055;28;20086;-85
2021/03/27 08:08:58;;;;;;;12.15;4.20;;;9.70;92.40;;;;;;5074254;28;20020;-88
2021/03/27 08:11:42;;;;;;;8.85;4.05;;;9.80;92.10;;;;;;5073315;28;20040;-84
2021/03/27 08:14:52;;;;;;;9.98;4.07;;;9.80;91.70;;;;;;5074199;28;20033;-90
2021/03/27 08:17:37;;;;;;;13.30;4.18;;;10.00;91.40;;;;;;4957720;28;20031;-87
2021/03/27 08:20:27;;;;;;;11.48;4.28;;;10.10;90.60;;;;;;4975837;28;20039;-85
2021/03/27 08:23:24;;;;;;;14.10;4.80;;;10.30;90.40;;;;;;5048602;28;20541;-85
2021/03/27 08:26:17;;;;;;;13.55;4.45;;;10.50;89.70;;;;;;5070788;28;20094;-86
2021/03/27 08:29:30;;;;;;;10.45;4.85;;;10.70;89.30;;;;;;5071236;28;20043;-85
2021/03/27 08:32:34;;;;;;;12.80;5.50;;;10.50;88.50;;;;;;5061916;28;20068;-89
2021/03/27 08:35:48;;;;;;;13.38;5.07;;;10.70;88.60;;;;;;5069758;28;20040;-89
2021/03/27 08:38:36;;;;;;;10.77;4.90;;;11.20;89.40;;;;;;5069922;28;20037;-79
2021/03/27 08:41:15;;;;;;;13.55;5.88;;;11.90;87.50;;;;;;5069296;28;20484;-82
2021/03/27 08:44:13;;;;;;;12.57;5.05;;;12.60;84.80;;;;;;5069374;28;20524;-86
2021/03/27 08:47:11;;;;;;;15.00;5.45;;;12.70;82.60;;;;;;5025373;28;20032;-82
2021/03/27 08:49:51;;;;;;;;;;;12.00;82.30;;;;;;5069306;28;20393;-83
2021/03/27 08:52:27;;;;;;;8.15;4.53;;;11.70;83.50;;;;;;5069907;28;19913;-85
2021/03/27 08:55:19;;;;;;;8.45;5.00;;;11.60;84.60;;;;;;5071152;28;20044;-87
2021/03/27 08:58:17;;;;;;;11.98;5.38;;;11.10;85.50;;;;;;5069301;28;20045;-79
2021/03/27 09:01:02;;;;;;;;;;;10.90;86.00;;;;;;5070313;28;20457;-82
2021/03/27 09:03:56;;;;;;;9.52;5.53;;;11.10;86.60;;;;;;5068635;28;19912;-82
2021/03/27 09:06:41;;;;;;;12.38;5.20;;;11.20;86.60;;;;;;5069819;28;20039;-83
2021/03/27 09:09:26;;;;;;;10.57;5.63;;;11.50;86.90;;;;;;5069390;28;20032;-85
2021/03/27 09:12:23;;;;;;;8.30;5.53;;;11.70;86.00;;;;;;5069756;28;20032;-82
2021/03/27 09:15:04;;;;;;;13.52;6.07;;;12.10;86.20;;;;;;5068180;28;20699;-86
2021/03/27 09:17:49;;;;;;;12.15;5.68;;;12.00;85.10;;;;;;5070977;28;20032;-83
2021/03/27 09:20:41;;;;;;;13.43;6.45;;;12.60;85.10;;;;;;5068662;28;20072;-83
2021/03/27 09:23:25;;;;;;;13.73;5.63;;;13.60;82.90;;;;;;5069159;28;20032;-84
2021/03/27 09:26:18;;;;;;;8.10;3.80;;;14.20;79.80;;;;;;5069632;28;20486;-87
2021/03/27 09:28:43;;;;;;;9.45;4.10;;;15.70;76.50;;;;;;5069569;28;20040;-86
2021/03/27 09:31:15;;;;;;;12.02;4.13;;;16.00;72.60;;;;;;5070018;28;20037;-86
2021/03/27 09:33:49;;;;;;;6.85;3.03;;;15.50;70.40;;;;;;5070125;28;20363;-85
2021/03/27 09:36:31;;;;;;;8.18;3.70;;;15.10;72.30;;;;;;5088123;28;20096;-83
2021/03/27 09:39:30;;;;;;;8.23;2.80;;;15.00;70.70;;;;;;5068304;28;20081;-85
2021/03/27 09:42:30;;;;;;;8.82;2.83;;;15.00;68.90;;;;;;5068153;28;20250;-86
2021/03/27 09:45:10;;;;;;;6.05;2.55;;;14.60;72.20;;;;;;5069946;28;20135;-90
2021/03/27 09:47:57;;;;;;;4.15;1.67;;;14.00;69.30;;;;;;5070222;28;20089;-79
2021/03/27 09:50:49;;;;;;;2.13;0.80;;;12.50;74.50;;;;;;5070702;28;20531;-85
2021/03/27 09:53:31;;;;;;;9.15;1.23;;;10.20;85.30;;;;;;5069776;28;20041;-89
2021/03/27 09:56:01;;;;;;;4.10;1.10;;;9.10;91.90;;;;;;5085293;28;20119;-80
2021/03/27 09:58:40;;;;;;;5.72;1.50;;;8.80;93.00;;;;;;5069042;28;20117;-83
2021/03/27 10:01:44;;;;;;;3.58;1.40;;;8.70;93.10;;;;;;5071261;28;20466;-82
2021/03/27 10:04:24;;;;;;;11.60;2.30;;;8.70;93.30;;;;;;5072973;28;20043;-84
2021/03/27 10:06:49;;;;;;;6.45;1.33;;;8.10;94.40;;;;;;5072143;28;20033;-83
2021/03/27 10:09:36;;;;;;;4.65;1.00;;;8.10;94.20;;;;;;5073066;28;20062;-84
2021/03/27 10:12:14;;;;;;;4.90;1.02;;;8.00;94.40;;;;;;5072941;28;20056;-83
2021/03/27 10:14:50;;;;;;;3.88;1.27;;;8.10;94.70;;;;;;5072774;28;20044;-86
2021/03/27 10:17:26;;;;;;;3.45;1.10;;;7.90;94.60;;;;;;5074288;28;20021;-80
2021/03/27 10:20:20;;;;;;;4.68;1.67;;;7.60;95.40;;;;;;5071226;28;20344;-82
2021/03/27 10:22:46;;;;;;;7.20;1.83;;;7.90;95.30;;;;;;5057469;28;20454;-81
2021/03/27 10:25:27;;;;;;;5.50;1.67;;;7.90;95.70;;;;;;5071084;28;20093;-81
2021/03/27 10:28:04;;;;;;;6.82;1.63;;;7.90;95.30;;;;;;5071772;28;20024;-82
2021/03/27 10:30:44;;;;;;;3.78;1.33;;;7.90;95.10;;;;;;5071959;28;20114;-76
2021/03/27 10:33:37;;;;;;;8.25;1.70;;;8.20;95.30;;;;;;5073075;28;20032;-83
2021/03/27 10:36:40;;;;;;;5.45;1.40;;;8.10;94.70;;;;;;5073625;28;20033;-85
2021/03/27 10:39:40;;;;;;;7.65;1.50;;;8.20;94.60;;;;;;5072615;28;20037;-84
2021/03/27 10:42:34;;;;;;;9.85;1.83;;;8.40;94.80;;;;;;5088162;28;20077;-90
2021/03/27 10:45:08;;;;;;;22.88;7.88;;;8.40;94.70;;;;;;5072393;28;20378;-87
2021/03/27 10:47:45;;;;;;;9.93;1.67;;;8.90;94.70;;;;;;5074454;28;20063;-89
2021/03/27 10:50:31;;;;;;;4.95;1.13;;;9.40;93.70;;;;;;5072674;28;20051;-82
2021/03/27 10:53:19;;;;;;;4.53;1.10;;;10.00;92.30;;;;;;5073251;28;20036;-83
2021/03/27 10:56:03;;;;;;;;;;;11.00;91.60;;;;;;5071636;28;20037;-84
2021/03/27 10:58:46;;;;;;;4.05;1.63;;;11.30;90.80;;;;;;5073786;28;19909;-82
2021/03/27 11:01:20;;;;;;;5.93;1.45;;;11.40;89.80;;;;;;5074449;28;20045;-86
2021/03/27 11:04:04;;;;;;;12.38;1.83;;;11.00;89.50;;;;;;5080469;28;20036;-89
2021/03/27 11:06:45;;;;;;;9.93;1.80;;;10.70;89.40;;;;;;5094967;28;20039;-90
2021/03/27 11:09:56;;;;;;;7.60;1.30;;;10.90;90.10;;;;;;5096277;28;20107;-89
2021/03/27 11:12:55;;;;;;;8.13;1.85;;;10.60;90.60;;;;;;5093225;28;20449;-85
2021/03/27 11:15:48;;;;;;;9.52;1.73;;;11.20;90.20;;;;;;5093261;28;20031;-89
2021/03/27 11:18:39;;;;;;;5.43;1.33;;;11.70;89.50;;;;;;5093556;28;20085;-89
2021/03/27 11:21:18;;;;;;;8.43;1.98;;;12.20;86.10;;;;;;5095260;28;20353;-92
2021/03/27 11:24:30;;;;;;;8.15;2.40;;;12.70;83.20;;;;;;5091438;28;20116;-85
2021/03/27 11:27:21;;;;;;;9.98;2.00;;;12.90;82.50;;;;;;5066043;28;20404;-86
2021/03/27 11:29:59;;;;;;;5.85;1.50;;;12.90;82.10;;;;;;5094484;28;20028;-88
2021/03/27 11:32:30;;;;;;;;;;;12.00;82.50;;;;;;5097079;28;20032;-89
2021/03/27 11:35:31;;;;;;;7.85;1.70;;;11.70;83.60;;;;;;5094199;28;19910;-86
2021/03/27 11:38:16;;;;;;;9.52;3.92;;;11.60;84.80;;;;;;5063079;28;20453;-86
2021/03/27 11:40:58;;;;;;;8.07;2.13;;;10.90;84.60;;;;;;5093643;28;20052;-82
2021/03/27 11:43:50;;;;;;;6.93;1.65;;;10.50;85.10;;;;;;5092749;28;20039;-84
2021/03/27 11:46:27;;;;;;;6.93;1.80;;;11.10;85.80;;;;;;5092936;28;20142;-82
2021/03/27 11:49:08;;;;;;;9.97;2.47;;;11.30;84.00;;;;;;5092833;28;20576;-82
2021/03/27 11:51:48;;;;;;;8.85;1.92;;;11.80;84.10;;;;;;5092525;28;20036;-81
2021/03/27 11:54:30;;;;;;;5.38;1.52;;;11.80;82.00;;;;;;5093792;28;20082;-87
2021/03/27 11:57:23;;;;;;;7.35;1.75;;;11.80;81.80;;;;;;5093962;28;20042;-91
2021/03/27 12:03:24;;;;;;;14.57;1.75;;;11.30;81.90;;;;;;5095931;28;20039;-90
2021/03/27 12:05:57;;;;;;;9.73;1.90;;;11.30;80.70;;;;;;5096228;28;20024;-83
2021/03/27 12:08:39;;;;;;;5.10;1.40;;;11.30;80.00;;;;;;5095788;28;20031;-87
2021/03/27 12:11:42;;;;;;;6.95;1.67;;;11.20;78.10;;;;;;5092262;28;20059;-84
2021/03/27 12:14:54;;;;;;;8.30;1.50;;;11.30;77.80;;;;;;5014218;28;20030;-81
2021/03/27 12:17:55;;;;;;;7.22;1.95;;;11.00;78.30;;;;;;5084619;28;20032;-84
2021/03/27 12:20:44;;;;;;;8.45;1.45;;;11.30;77.90;;;;;;5092889;28;20028;-84
2021/03/27 12:23:21;;;;;;;5.07;1.40;;;11.00;76.40;;;;;;5091056;28;20032;-83
2021/03/27 12:26:02;;;;;;;6.22;1.60;;;10.90;77.00;;;;;;5090768;28;20028;-83
2021/03/27 12:28:42;;;;;;;5.53;1.60;;;11.00;77.00;;;;;;5087921;28;20036;-79
2021/03/27 12:31:19;;;;;;;6.15;1.65;;;11.10;77.10;;;;;;5088195;28;20470;-84
2021/03/27 12:34:03;;;;;;;8.18;1.45;;;11.20;77.60;;;;;;5089834;28;20024;-84
2021/03/27 12:36:41;;;;;;;2.20;0.95;;;10.10;81.60;;;;;;5089232;28;20039;-83
2021/03/27 12:39:31;;;;;;;8.77;1.30;;;8.70;91.20;;;;;;5089146;28;20098;-84
2021/03/27 12:41:57;;;;;;;5.10;1.23;;;8.10;93.40;;;;;;5080717;28;20394;-79
2021/03/27 12:44:58;;;;;;;3.25;1.00;;;7.70;94.00;;;;;;5070847;28;20020;-85
2021/03/27 12:47:37;;;;;;;10.25;3.15;;;7.60;95.00;;;;;;5071500;28;20025;-86
2021/03/27 12:50:21;;;;;;;8.60;4.43;;;7.30;96.10;;;;;;5069636;28;20308;-89
2021/03/27 12:53:05;;;;;;;3.47;0.80;;;6.60;96.20;;;;;;5068281;28;20041;-82
2021/03/27 12:55:58;;;;;;;4.80;0.68;;;6.80;96.40;;;;;;5068720;28;20156;-80
2021/03/27 12:58:24;;;;;;;3.08;0.60;;;6.80;96.60;;;;;;5067669;28;20048;-82
2021/03/27 13:00:58;;;;;;;2.92;0.63;;;6.50;96.20;;;;;;5069000;28;20119;-80
2021/03/27 13:04:11;;;;;;;3.10;0.63;;;6.20;96.70;;;;;;5066877;28;20070;-80
2021/03/27 13:07:03;;;;;;;3.60;0.68;;;6.40;96.80;;;;;;5068485;28;20044;-82
2021/03/27 13:10:05;;;;;;;4.60;1.02;;;6.10;97.00;;;;;;5067161;28;20482;-83
2021/03/27 13:12:52;;;;;;;0.95;0.55;;;6.10;97.20;;;;;;5067181;28;20028;-80
2021/03/27 13:15:42;;;;;;;2.30;1.05;;;6.10;97.00;;;;;;5067546;28;20037;-84
2021/03/27 13:18:29;;;;;;;2.53;1.13;;;6.20;97.30;;;;;;5068290;28;20102;-84
2021/03/27 13:21:11;;;;;;;5.63;0.90;;;6.50;97.10;;;;;;5067327;28;20442;-82
2021/03/27 13:23:51;;;;;;;2.25;0.75;;;6.80;97.00;;;;;;5068899;28;20033;-83
2021/03/27 13:26:23;;;;;;;2.88;0.65;;;7.00;96.60;;;;;;5067448;28;20111;-78
2021/03/27 13:29:00;;;;;;;5.00;1.30;;;7.10;96.80;;;;;;5067929;28;20037;-85
2021/03/27 13:31:52;;;;;;;3.70;1.02;;;7.30;96.30;;;;;;5067014;28;20048;-73
2021/03/27 13:34:30;;;;;;;2.55;0.75;;;7.70;96.90;;;;;;5066432;28;20442;-84
2021/03/27 13:37:10;;;;;;;5.85;1.13;;;7.90;95.60;;;;;;5071694;28;20064;-84
2021/03/27 13:39:37;;;;;;;7.80;1.23;;;7.90;95.40;;;;;;5071206;28;20025;-84
2021/03/27 13:42:41;;;;;;;7.50;1.10;;;8.20;95.80;;;;;;5071140;28;20051;-84
2021/03/27 13:45:14;;;;;;;2.38;1.05;;;8.40;95.80;;;;;;5070593;28;20051;-84
2021/03/27 13:47:48;;;;;;;6.45;1.17;;;8.60;96.40;;;;;;5072836;28;20040;-85
2021/03/27 13:50:48;;;;;;;5.70;1.25;;;8.70;96.00;;;;;;5074856;28;20048;-88
2021/03/27 13:53:23;;;;;;;6.05;1.55;;;8.70;95.90;;;;;;5068755;28;20039;-85
2021/03/27 13:56:12;;;;;;;20.20;7.10;;;8.80;95.90;;;;;;5072450;28;20048;-85
2021/03/27 13:59:15;;;;;;;15.43;4.35;;;9.10;95.90;;;;;;5072387;28;20044;-86
2021/03/27 14:02:07;;;;;;;8.20;2.70;;;9.30;95.10;;;;;;5048329;28;20033;-84
2021/03/27 14:04:40;;;;;;;4.40;1.48;;;9.40;94.20;;;;;;5071656;28;20055;-83
2021/03/27 14:07:23;;;;;;;5.05;1.10;;;9.40;93.80;;;;;;5071568;28;20097;-84
2021/03/27 14:10:06;;;;;;;6.75;1.50;;;9.50;93.10;;;;;;5072010;28;20056;-87
2021/03/27 14:12:43;;;;;;;9.57;2.70;;;9.20;93.10;;;;;;5072003;28;20036;-82
2021/03/27 14:15:12;;;;;;;4.30;1.30;;;9.40;93.40;;;;;;5071779;28;20024;-87
2021/03/27 14:18:29;;;;;;;8.05;1.85;;;9.30;92.40;;;;;;5070209;28;20366;-80
2021/03/27 14:21:06;;;;;;;5.47;1.42;;;9.30;92.00;;;;;;5027013;28;20037;-82
2021/03/27 14:24:06;;;;;;;8.75;1.90;;;9.30;91.50;;;;;;5073080;28;20024;-83
2021/03/27 14:26:38;;;;;;;3.00;1.15;;;9.20;91.70;;;;;;4999788;28;20074;-84
2021/03/27 14:29:14;;;;;;;5.68;1.67;;;9.10;91.00;;;;;;5071597;28;20066;-83
2021/03/27 14:31:42;;;;;;;5.38;1.40;;;9.40;91.10;;;;;;5071264;28;20181;-83
2021/03/27 14:34:20;;;;;;;;;;;9.40;91.30;;;;;;5071522;28;20098;-82
2021/03/27 14:37:02;;;;;;;;;;;9.40;91.30;;;;;;5070398;28;19913;-83